To NAV CANADA Home Page Login to a new session Search on AWWS site Feedback and Comments Disclaimer Vers la page française équivalente Tips FAQ What's new on the site To the Forecasts and Observations / NOTAM section To "File a Flight Plan" website Publications and other links Update of the User's profile FIC Telephone Numbers My Weather Data Folder Route Weather Data Regional Weather Data Local Weather Data To the Forecasts and Observations / NOTAM section
Request Generated 02/06/2016 at 18:21:46 UTC . Weather information available at that time is displayed.

METAR/TAF

CALGARY/CALGARY INTL/AB    

METAR CYYC 061800Z 29008G17KT 40SM FEW050 SCT150 BKN260 05/M10 A2977
RMK CF1AC3CS2 VIS S-SW LWR / DIST SHRA E-SE / PRESRR SLP115=
METAR CYYC 061700Z 26013G22KT 30SM FEW025 FEW035 SCT100 BKN120 BKN160
04/M05 A2972 RMK SC1CU1AC2AC2AC1 CU TR PRESRR SLP098=
METAR CYYC 061600Z 27016G25KT 20SM FEW025 SCT120 BKN150 05/M07 A2965
RMK SC1AS3AC3 PRESRR SLP070=

TAF CYYC 061738Z 0618/0718 27015G25KT P6SM SKC TEMPO 0618/0623
27030G40KT
FM062300 28020G30KT P6SM SKC
BECMG 0703/0705 28015G25KT
FM070900 28012KT P6SM SKC
FM071600 30008KT P6SM SCT120 BKN240
RMK NXT FCST BY 062100Z=
Your time UTC time
Weather data provided by Environment Canada and NAV CANADA